sensor_id;sensor_type;location;lat;lon;timestamp;temperature;humidity
6538;DHT22;3302;52.508;13.454;2022-11-20T00:00:12;0.40;99.90
6538;DHT22;3302;52.508;13.454;2022-11-20T00:02:38;0.30;99.90
6538;DHT22;3302;52.508;13.454;2022-11-20T00:05:04;0.40;99.90
6538;DHT22;3302;52.508;13.454;2022-11-20T00:07:30;0.30;99.90
6538;DHT22;3302;52.508;13.454;2022-11-20T00:09:55;0.30;99.90
6538;DHT22;3302;52.508;13.454;2022-11-20T00:12:21;0.30;99.90
6538;DHT22;3302;52.508;13.454;2022-11-20T00:14:47;0.30;99.90
6538;DHT22;3302;52.508;13.454;2022-11-20T00:17:13;0.20;99.90
6538;DHT22;3302;52.508;13.454;2022-11-20T00:19:38;0.30;99.90
6538;DHT22;3302;52.508;13.454;2022-11-20T00:22:04;0.20;99.90
6538;DHT22;3302;52.508;13.454;2022-11-20T00:24:30;0.20;99.90
6538;DHT22;3302;52.508;13.454;2022-11-20T00:26:56;0.30;99.90
6538;DHT22;3302;52.508;13.454;2022-11-20T00:29:21;0.30;99.90
6538;DHT22;3302;52.508;13.454;2022-11-20T00:31:47;0.30;99.90
6538;DHT22;3302;52.508;13.454;2022-11-20T00:34:13;0.30;99.90
6538;DHT22;3302;52.508;13.454;2022-11-20T00:36:39;0.20;99.90
6538;DHT22;3302;52.508;13.454;2022-11-20T00:39:04;0.30;99.90
6538;DHT22;3302;52.508;13.454;2022-11-20T00:41:30;0.30;99.90
6538;DHT22;3302;52.508;13.454;2022-11-20T00:43:56;0.30;99.90
6538;DHT22;3302;52.508;13.454;2022-11-20T00:46:25;0.30;99.90
6538;DHT22;3302;52.508;13.454;2022-11-20T00:48:51;0.40;99.90
6538;DHT22;3302;52.508;13.454;2022-11-20T00:51:19;0.30;99.90
6538;DHT22;3302;52.508;13.454;2022-11-20T00:53:45;0.20;99.90
6538;DHT22;3302;52.508;13.454;2022-11-20T00:56:13;0.30;99.90
6538;DHT22;3302;52.508;13.454;2022-11-20T00:58:41;0.30;99.90
6538;DHT22;3302;52.508;13.454;2022-11-20T01:01:26;0.40;99.90
6538;DHT22;3302;52.508;13.454;2022-11-20T01:03:54;0.40;99.90
6538;DHT22;3302;52.508;13.454;2022-11-20T01:06:25;0.40;99.90
6538;DHT22;3302;52.508;13.454;2022-11-20T01:08:54;0.40;99.90
6538;DHT22;3302;52.508;13.454;2022-11-20T01:11:25;0.40;99.90
6538;DHT22;3302;52.508;13.454;2022-11-20T01:13:52;0.40;99.90
6538;DHT22;3302;52.508;13.454;2022-11-20T01:16:23;0.40;99.90
6538;DHT22;3302;52.508;13.454;2022-11-20T01:18:51;0.40;99.90
6538;DHT22;3302;52.508;13.454;2022-11-20T01:21:26;0.40;99.90
6538;DHT22;3302;52.508;13.454;2022-11-20T01:23:53;0.40;99.90
6538;DHT22;3302;52.508;13.454;2022-11-20T01:26:21;0.30;99.90
6538;DHT22;3302;52.508;13.454;2022-11-20T01:28:48;0.40;99.90
6538;DHT22;3302;52.508;13.454;2022-11-20T01:31:22;0.40;99.90
6538;DHT22;3302;52.508;13.454;2022-11-20T01:33:51;0.30;99.90
6538;DHT22;3302;52.508;13.454;2022-11-20T01:36:19;0.40;99.90
6538;DHT22;3302;52.508;13.454;2022-11-20T01:38:45;0.50;99.90
6538;DHT22;3302;52.508;13.454;2022-11-20T01:41:13;0.50;99.90
6538;DHT22;3302;52.508;13.454;2022-11-20T01:44:00;0.50;99.90
6538;DHT22;3302;52.508;13.454;2022-11-20T01:46:26;0.50;99.90
6538;DHT22;3302;52.508;13.454;2022-11-20T01:51:43;0.40;99.90
6538;DHT22;3302;52.508;13.454;2022-11-20T01:54:15;0.40;99.90
6538;DHT22;3302;52.508;13.454;2022-11-20T01:56:44;0.40;99.90
6538;DHT22;3302;52.508;13.454;2022-11-20T01:59:13;0.40;99.90
6538;DHT22;3302;52.508;13.454;2022-11-20T02:01:39;0.30;99.90
6538;DHT22;3302;52.508;13.454;2022-11-20T02:04:07;0.30;99.90
6538;DHT22;3302;52.508;13.454;2022-11-20T02:06:48;0.30;99.90
6538;DHT22;3302;52.508;13.454;2022-11-20T02:09:15;0.20;99.90
6538;DHT22;3302;52.508;13.454;2022-11-20T02:11:41;0.30;99.90
6538;DHT22;3302;52.508;13.454;2022-11-20T02:14:07;0.30;99.90
6538;DHT22;3302;52.508;13.454;2022-11-20T02:16:37;0.20;99.90
6538;DHT22;3302;52.508;13.454;2022-11-20T02:19:09;0.20;99.90
6538;DHT22;3302;52.508;13.454;2022-11-20T02:21:46;0.10;99.90
6538;DHT22;3302;52.508;13.454;2022-11-20T02:24:21;0.20;99.90
6538;DHT22;3302;52.508;13.454;2022-11-20T02:26:52;0.10;99.90
6538;DHT22;3302;52.508;13.454;2022-11-20T02:29:40;0.10;99.90
6538;DHT22;3302;52.508;13.454;2022-11-20T02:32:25;0.10;99.90
6538;DHT22;3302;52.508;13.454;2022-11-20T02:34:51;0.10;99.90
6538;DHT22;3302;52.508;13.454;2022-11-20T02:37:18;0.10;99.90
6538;DHT22;3302;52.508;13.454;2022-11-20T02:39:46;0.00;99.90
6538;DHT22;3302;52.508;13.454;2022-11-20T02:42:12;0.00;99.90
6538;DHT22;3302;52.508;13.454;2022-11-20T02:44:39;0.10;99.90
6538;DHT22;3302;52.508;13.454;2022-11-20T02:47:05;0.10;99.90
6538;DHT22;3302;52.508;13.454;2022-11-20T02:49:30;0.10;99.90
6538;DHT22;3302;52.508;13.454;2022-11-20T02:51:56;0.00;99.90
6538;DHT22;3302;52.508;13.454;2022-11-20T02:54:22;0.00;99.90
6538;DHT22;3302;52.508;13.454;2022-11-20T02:56:48;0.10;99.90
6538;DHT22;3302;52.508;13.454;2022-11-20T02:59:14;0.00;99.90
6538;DHT22;3302;52.508;13.454;2022-11-20T03:01:40;0.00;99.90
6538;DHT22;3302;52.508;13.454;2022-11-20T03:04:06;0.10;99.90
6538;DHT22;3302;52.508;13.454;2022-11-20T03:06:32;0.00;99.90
6538;DHT22;3302;52.508;13.454;2022-11-20T03:08:58;0.10;99.90
6538;DHT22;3302;52.508;13.454;2022-11-20T03:11:23;0.10;99.90
6538;DHT22;3302;52.508;13.454;2022-11-20T03:13:49;0.00;99.90
6538;DHT22;3302;52.508;13.454;2022-11-20T03:16:17;0.10;99.90
6538;DHT22;3302;52.508;13.454;2022-11-20T03:18:44;0.00;99.90
6538;DHT22;3302;52.508;13.454;2022-11-20T03:21:11;0.00;99.90
6538;DHT22;3302;52.508;13.454;2022-11-20T03:23:38;0.00;99.90
6538;DHT22;3302;52.508;13.454;2022-11-20T03:26:16;0.00;99.90
6538;DHT22;3302;52.508;13.454;2022-11-20T03:28:50;0.00;99.90
6538;DHT22;3302;52.508;13.454;2022-11-20T03:31:18;0.10;99.90
6538;DHT22;3302;52.508;13.454;2022-11-20T03:33:44;0.10;99.90
6538;DHT22;3302;52.508;13.454;2022-11-20T03:36:12;0.10;99.90
6538;DHT22;3302;52.508;13.454;2022-11-20T03:38:38;0.00;99.90
6538;DHT22;3302;52.508;13.454;2022-11-20T03:41:09;0.20;99.90
6538;DHT22;3302;52.508;13.454;2022-11-20T03:43:35;0.20;99.90
6538;DHT22;3302;52.508;13.454;2022-11-20T03:46:01;0.20;99.90
6538;DHT22;3302;52.508;13.454;2022-11-20T03:48:28;0.20;99.90
6538;DHT22;3302;52.508;13.454;2022-11-20T03:51:07;0.20;99.90
6538;DHT22;3302;52.508;13.454;2022-11-20T03:53:32;0.20;99.90
6538;DHT22;3302;52.508;13.454;2022-11-20T03:55:58;0.10;99.90
6538;DHT22;3302;52.508;13.454;2022-11-20T03:58:25;0.10;99.90
6538;DHT22;3302;52.508;13.454;2022-11-20T04:00:50;0.10;99.90
6538;DHT22;3302;52.508;13.454;2022-11-20T04:03:16;0.10;99.90
6538;DHT22;3302;52.508;13.454;2022-11-20T04:05:42;0.10;99.90
6538;DHT22;3302;52.508;13.454;2022-11-20T04:08:07;0.10;99.90
6538;DHT22;3302;52.508;13.454;2022-11-20T04:10:33;0.10;99.90
6538;DHT22;3302;52.508;13.454;2022-11-20T04:12:59;0.10;99.90
6538;DHT22;3302;52.508;13.454;2022-11-20T04:15:25;0.10;99.90
6538;DHT22;3302;52.508;13.454;2022-11-20T04:17:50;0.10;99.90
6538;DHT22;3302;52.508;13.454;2022-11-20T04:20:16;0.00;99.90
6538;DHT22;3302;52.508;13.454;2022-11-20T04:22:42;0.00;99.90
6538;DHT22;3302;52.508;13.454;2022-11-20T04:25:08;0.00;99.90
6538;DHT22;3302;52.508;13.454;2022-11-20T04:27:34;-0.10;99.90
6538;DHT22;3302;52.508;13.454;2022-11-20T04:29:59;-0.10;99.90
6538;DHT22;3302;52.508;13.454;2022-11-20T04:32:25;-0.20;99.90
6538;DHT22;3302;52.508;13.454;2022-11-20T04:34:51;-0.20;99.90
6538;DHT22;3302;52.508;13.454;2022-11-20T04:37:17;-0.20;99.90
6538;DHT22;3302;52.508;13.454;2022-11-20T04:39:42;-0.20;99.90
6538;DHT22;3302;52.508;13.454;2022-11-20T04:42:09;-0.10;99.90
6538;DHT22;3302;52.508;13.454;2022-11-20T04:44:54;-0.10;99.90
6538;DHT22;3302;52.508;13.454;2022-11-20T04:47:20;-0.10;99.90
6538;DHT22;3302;52.508;13.454;2022-11-20T04:49:46;-0.20;99.90
6538;DHT22;3302;52.508;13.454;2022-11-20T04:52:12;-0.30;99.90
6538;DHT22;3302;52.508;13.454;2022-11-20T04:54:38;-0.10;99.90
6538;DHT22;3302;52.508;13.454;2022-11-20T04:57:04;-0.10;99.90
6538;DHT22;3302;52.508;13.454;2022-11-20T04:59:29;-0.10;99.90
6538;DHT22;3302;52.508;13.454;2022-11-20T05:01:55;-0.20;99.90
6538;DHT22;3302;52.508;13.454;2022-11-20T05:04:21;-0.20;99.90
6538;DHT22;3302;52.508;13.454;2022-11-20T05:06:47;-0.20;99.90
6538;DHT22;3302;52.508;13.454;2022-11-20T05:09:12;-0.20;99.90
6538;DHT22;3302;52.508;13.454;2022-11-20T05:11:38;-0.20;99.90
6538;DHT22;3302;52.508;13.454;2022-11-20T05:14:04;-0.10;99.90
6538;DHT22;3302;52.508;13.454;2022-11-20T05:16:30;-0.10;99.90
6538;DHT22;3302;52.508;13.454;2022-11-20T05:18:56;-0.10;99.90
6538;DHT22;3302;52.508;13.454;2022-11-20T05:21:22;-0.10;99.90
6538;DHT22;3302;52.508;13.454;2022-11-20T05:23:48;-0.20;99.90
6538;DHT22;3302;52.508;13.454;2022-11-20T05:26:19;-0.20;99.90
6538;DHT22;3302;52.508;13.454;2022-11-20T05:28:45;-0.10;99.90
6538;DHT22;3302;52.508;13.454;2022-11-20T05:31:19;0.00;99.90
6538;DHT22;3302;52.508;13.454;2022-11-20T05:33:46;-0.10;99.90
6538;DHT22;3302;52.508;13.454;2022-11-20T05:36:13;-0.10;99.90
6538;DHT22;3302;52.508;13.454;2022-11-20T05:38:40;-0.10;99.90
6538;DHT22;3302;52.508;13.454;2022-11-20T05:43:38;0.00;99.90
6538;DHT22;3302;52.508;13.454;2022-11-20T05:46:05;0.00;99.90
6538;DHT22;3302;52.508;13.454;2022-11-20T05:48:33;0.00;99.90
6538;DHT22;3302;52.508;13.454;2022-11-20T05:51:00;0.00;99.90
6538;DHT22;3302;52.508;13.454;2022-11-20T05:53:26;0.10;99.90
6538;DHT22;3302;52.508;13.454;2022-11-20T05:58:28;0.10;99.90
6538;DHT22;3302;52.508;13.454;2022-11-20T06:00:54;0.20;99.90
6538;DHT22;3302;52.508;13.454;2022-11-20T06:03:20;0.10;99.90
6538;DHT22;3302;52.508;13.454;2022-11-20T06:05:46;0.10;99.90
6538;DHT22;3302;52.508;13.454;2022-11-20T06:08:12;0.00;99.90
6538;DHT22;3302;52.508;13.454;2022-11-20T06:10:38;0.00;99.90
6538;DHT22;3302;52.508;13.454;2022-11-20T06:13:03;-0.10;99.90
6538;DHT22;3302;52.508;13.454;2022-11-20T06:15:29;0.00;99.90
6538;DHT22;3302;52.508;13.454;2022-11-20T06:17:55;0.00;99.90
6538;DHT22;3302;52.508;13.454;2022-11-20T06:20:24;0.00;99.90
6538;DHT22;3302;52.508;13.454;2022-11-20T06:22:49;0.00;99.90
6538;DHT22;3302;52.508;13.454;2022-11-20T06:25:15;0.00;99.90
6538;DHT22;3302;52.508;13.454;2022-11-20T06:27:41;0.00;99.90
6538;DHT22;3302;52.508;13.454;2022-11-20T06:30:08;-0.10;99.90
6538;DHT22;3302;52.508;13.454;2022-11-20T06:32:34;0.00;99.90
6538;DHT22;3302;52.508;13.454;2022-11-20T06:34:59;0.00;99.90
6538;DHT22;3302;52.508;13.454;2022-11-20T06:37:25;-0.10;99.90
6538;DHT22;3302;52.508;13.454;2022-11-20T06:39:51;-0.20;99.90
6538;DHT22;3302;52.508;13.454;2022-11-20T06:42:17;-0.20;99.90
6538;DHT22;3302;52.508;13.454;2022-11-20T06:44:42;-0.10;99.90
6538;DHT22;3302;52.508;13.454;2022-11-20T06:47:08;-0.10;99.90
6538;DHT22;3302;52.508;13.454;2022-11-20T06:49:34;0.00;99.90
6538;DHT22;3302;52.508;13.454;2022-11-20T06:52:00;0.00;99.90
6538;DHT22;3302;52.508;13.454;2022-11-20T06:54:25;0.00;99.90
6538;DHT22;3302;52.508;13.454;2022-11-20T06:56:51;0.00;99.90
6538;DHT22;3302;52.508;13.454;2022-11-20T06:59:17;0.00;99.90
6538;DHT22;3302;52.508;13.454;2022-11-20T07:01:42;0.00;99.90
6538;DHT22;3302;52.508;13.454;2022-11-20T07:04:08;0.00;99.90
6538;DHT22;3302;52.508;13.454;2022-11-20T07:06:34;0.00;99.90
6538;DHT22;3302;52.508;13.454;2022-11-20T07:09:00;0.20;99.90
6538;DHT22;3302;52.508;13.454;2022-11-20T07:11:27;0.10;99.90
6538;DHT22;3302;52.508;13.454;2022-11-20T07:13:52;0.00;99.90
6538;DHT22;3302;52.508;13.454;2022-11-20T07:16:19;0.10;99.90
6538;DHT22;3302;52.508;13.454;2022-11-20T07:18:45;0.00;99.90
6538;DHT22;3302;52.508;13.454;2022-11-20T07:21:11;0.00;99.90
6538;DHT22;3302;52.508;13.454;2022-11-20T07:23:37;-0.10;99.90
6538;DHT22;3302;52.508;13.454;2022-11-20T07:26:07;-0.10;99.90
6538;DHT22;3302;52.508;13.454;2022-11-20T07:28:33;-0.20;99.90
6538;DHT22;3302;52.508;13.454;2022-11-20T07:30:59;-0.10;99.90
6538;DHT22;3302;52.508;13.454;2022-11-20T07:33:24;-0.20;99.90
6538;DHT22;3302;52.508;13.454;2022-11-20T07:35:50;0.00;99.90
6538;DHT22;3302;52.508;13.454;2022-11-20T07:38:16;-0.20;99.90
6538;DHT22;3302;52.508;13.454;2022-11-20T07:40:42;-0.20;99.90
6538;DHT22;3302;52.508;13.454;2022-11-20T07:43:08;-0.10;99.90
6538;DHT22;3302;52.508;13.454;2022-11-20T07:45:34;-0.20;99.90
6538;DHT22;3302;52.508;13.454;2022-11-20T07:47:59;-0.20;99.90
6538;DHT22;3302;52.508;13.454;2022-11-20T07:50:25;-0.10;99.90
6538;DHT22;3302;52.508;13.454;2022-11-20T07:52:51;-0.20;99.90
6538;DHT22;3302;52.508;13.454;2022-11-20T07:55:18;-0.20;99.90
6538;DHT22;3302;52.508;13.454;2022-11-20T07:57:43;-0.30;99.90
6538;DHT22;3302;52.508;13.454;2022-11-20T08:00:10;-0.10;99.90
6538;DHT22;3302;52.508;13.454;2022-11-20T08:02:40;-0.10;99.90
6538;DHT22;3302;52.508;13.454;2022-11-20T08:05:10;-0.20;99.90
6538;DHT22;3302;52.508;13.454;2022-11-20T08:07:40;-0.20;99.90
6538;DHT22;3302;52.508;13.454;2022-11-20T08:10:08;-0.20;99.90
6538;DHT22;3302;52.508;13.454;2022-11-20T08:12:34;-0.20;99.90
6538;DHT22;3302;52.508;13.454;2022-11-20T08:15:18;-0.10;99.90
6538;DHT22;3302;52.508;13.454;2022-11-20T08:17:44;-0.20;99.90
6538;DHT22;3302;52.508;13.454;2022-11-20T08:20:10;-0.20;99.90
6538;DHT22;3302;52.508;13.454;2022-11-20T08:22:36;-0.30;99.90
6538;DHT22;3302;52.508;13.454;2022-11-20T08:25:02;-0.20;99.90
6538;DHT22;3302;52.508;13.454;2022-11-20T08:27:27;-0.20;99.90
6538;DHT22;3302;52.508;13.454;2022-11-20T08:29:53;-0.10;99.90
6538;DHT22;3302;52.508;13.454;2022-11-20T08:32:19;0.00;99.90
6538;DHT22;3302;52.508;13.454;2022-11-20T08:34:44;-0.10;99.90
6538;DHT22;3302;52.508;13.454;2022-11-20T08:37:11;-0.10;99.90
6538;DHT22;3302;52.508;13.454;2022-11-20T08:39:37;-0.10;99.90
6538;DHT22;3302;52.508;13.454;2022-11-20T08:42:07;-0.10;99.90
6538;DHT22;3302;52.508;13.454;2022-11-20T08:44:32;-0.10;99.90
6538;DHT22;3302;52.508;13.454;2022-11-20T08:46:58;0.00;99.90
6538;DHT22;3302;52.508;13.454;2022-11-20T08:49:25;0.00;99.90
6538;DHT22;3302;52.508;13.454;2022-11-20T08:51:51;0.00;99.90
6538;DHT22;3302;52.508;13.454;2022-11-20T08:54:19;0.10;99.90
6538;DHT22;3302;52.508;13.454;2022-11-20T08:56:47;0.10;99.90
6538;DHT22;3302;52.508;13.454;2022-11-20T08:59:13;0.10;99.90
6538;DHT22;3302;52.508;13.454;2022-11-20T09:01:39;0.10;99.90
6538;DHT22;3302;52.508;13.454;2022-11-20T09:04:05;0.10;99.90
6538;DHT22;3302;52.508;13.454;2022-11-20T09:06:30;0.10;99.90
6538;DHT22;3302;52.508;13.454;2022-11-20T09:08:56;0.20;99.90
6538;DHT22;3302;52.508;13.454;2022-11-20T09:11:22;0.10;99.90
6538;DHT22;3302;52.508;13.454;2022-11-20T09:13:48;0.10;99.90
6538;DHT22;3302;52.508;13.454;2022-11-20T09:16:14;0.10;99.90
6538;DHT22;3302;52.508;13.454;2022-11-20T09:18:40;0.20;99.90
6538;DHT22;3302;52.508;13.454;2022-11-20T09:21:11;0.20;99.90
6538;DHT22;3302;52.508;13.454;2022-11-20T09:23:38;0.10;99.90
6538;DHT22;3302;52.508;13.454;2022-11-20T09:26:06;0.20;99.90
6538;DHT22;3302;52.508;13.454;2022-11-20T09:28:32;0.10;99.90
6538;DHT22;3302;52.508;13.454;2022-11-20T09:30:59;0.20;99.90
6538;DHT22;3302;52.508;13.454;2022-11-20T09:33:25;0.30;99.90
6538;DHT22;3302;52.508;13.454;2022-11-20T09:35:50;0.20;99.90
6538;DHT22;3302;52.508;13.454;2022-11-20T09:38:16;0.20;99.90
6538;DHT22;3302;52.508;13.454;2022-11-20T09:41:02;0.20;99.90
6538;DHT22;3302;52.508;13.454;2022-11-20T09:51:33;0.20;99.90
6538;DHT22;3302;52.508;13.454;2022-11-20T09:54:23;0.20;99.90
6538;DHT22;3302;52.508;13.454;2022-11-20T09:57:11;0.30;99.90
6538;DHT22;3302;52.508;13.454;2022-11-20T10:00:09;0.30;99.90
6538;DHT22;3302;52.508;13.454;2022-11-20T10:02:45;0.40;99.90
6538;DHT22;3302;52.508;13.454;2022-11-20T10:05:25;0.30;99.90
6538;DHT22;3302;52.508;13.454;2022-11-20T10:10:45;0.30;99.90
6538;DHT22;3302;52.508;13.454;2022-11-20T10:18:27;0.20;99.90
6538;DHT22;3302;52.508;13.454;2022-11-20T10:29:19;0.20;99.90
6538;DHT22;3302;52.508;13.454;2022-11-20T10:32:00;0.20;99.90
6538;DHT22;3302;52.508;13.454;2022-11-20T10:34:31;0.20;99.90
6538;DHT22;3302;52.508;13.454;2022-11-20T10:37:11;0.30;99.90
6538;DHT22;3302;52.508;13.454;2022-11-20T10:39:55;0.30;99.90
6538;DHT22;3302;52.508;13.454;2022-11-20T10:45:09;0.40;99.90
6538;DHT22;3302;52.508;13.454;2022-11-20T10:47:39;0.40;99.90
6538;DHT22;3302;52.508;13.454;2022-11-20T10:50:08;0.40;99.90
6538;DHT22;3302;52.508;13.454;2022-11-20T10:55:50;0.30;99.90
6538;DHT22;3302;52.508;13.454;2022-11-20T10:58:14;0.40;99.90
6538;DHT22;3302;52.508;13.454;2022-11-20T11:00:42;0.40;99.90
6538;DHT22;3302;52.508;13.454;2022-11-20T11:03:22;0.30;99.90
6538;DHT22;3302;52.508;13.454;2022-11-20T11:08:41;0.50;99.90
6538;DHT22;3302;52.508;13.454;2022-11-20T11:13:46;0.50;99.90
6538;DHT22;3302;52.508;13.454;2022-11-20T11:16:22;0.60;99.90
6538;DHT22;3302;52.508;13.454;2022-11-20T11:18:48;0.70;99.90
6538;DHT22;3302;52.508;13.454;2022-11-20T11:21:21;0.70;99.90
6538;DHT22;3302;52.508;13.454;2022-11-20T11:24:00;0.80;99.90
6538;DHT22;3302;52.508;13.454;2022-11-20T11:26:26;0.80;99.90
6538;DHT22;3302;52.508;13.454;2022-11-20T11:28:57;0.90;99.90
6538;DHT22;3302;52.508;13.454;2022-11-20T11:31:27;0.80;99.90
6538;DHT22;3302;52.508;13.454;2022-11-20T11:34:04;0.80;99.90
6538;DHT22;3302;52.508;13.454;2022-11-20T11:36:34;0.80;99.90
6538;DHT22;3302;52.508;13.454;2022-11-20T11:39:01;0.90;99.90
6538;DHT22;3302;52.508;13.454;2022-11-20T11:41:31;0.80;99.90
6538;DHT22;3302;52.508;13.454;2022-11-20T11:44:03;0.80;99.90
6538;DHT22;3302;52.508;13.454;2022-11-20T11:46:58;0.80;99.90
6538;DHT22;3302;52.508;13.454;2022-11-20T11:49:24;0.70;99.90
6538;DHT22;3302;52.508;13.454;2022-11-20T11:52:00;0.80;99.90
6538;DHT22;3302;52.508;13.454;2022-11-20T11:54:36;0.80;99.90
6538;DHT22;3302;52.508;13.454;2022-11-20T12:05:55;0.80;99.90
6538;DHT22;3302;52.508;13.454;2022-11-20T12:11:29;0.90;99.90
6538;DHT22;3302;52.508;13.454;2022-11-20T12:14:19;0.80;99.90
6538;DHT22;3302;52.508;13.454;2022-11-20T12:16:50;0.80;99.90
6538;DHT22;3302;52.508;13.454;2022-11-20T12:19:16;0.90;99.90
6538;DHT22;3302;52.508;13.454;2022-11-20T12:24:32;0.90;99.90
6538;DHT22;3302;52.508;13.454;2022-11-20T12:30:15;1.00;99.90
6538;DHT22;3302;52.508;13.454;2022-11-20T12:43:51;1.10;99.90
6538;DHT22;3302;52.508;13.454;2022-11-20T12:47:00;1.10;99.90
6538;DHT22;3302;52.508;13.454;2022-11-20T12:49:57;1.10;99.90
6538;DHT22;3302;52.508;13.454;2022-11-20T12:53:04;1.10;99.90
6538;DHT22;3302;52.508;13.454;2022-11-20T12:55:28;1.30;99.90
6538;DHT22;3302;52.508;13.454;2022-11-20T13:01:00;1.20;99.90
6538;DHT22;3302;52.508;13.454;2022-11-20T13:03:36;1.20;99.90
6538;DHT22;3302;52.508;13.454;2022-11-20T13:06:12;1.20;99.90
6538;DHT22;3302;52.508;13.454;2022-11-20T13:08:41;1.20;99.90
6538;DHT22;3302;52.508;13.454;2022-11-20T13:11:25;1.20;99.90
6538;DHT22;3302;52.508;13.454;2022-11-20T13:14:00;1.20;99.90
6538;DHT22;3302;52.508;13.454;2022-11-20T13:19:04;1.20;99.90
6538;DHT22;3302;52.508;13.454;2022-11-20T13:21:38;1.30;99.90
6538;DHT22;3302;52.508;13.454;2022-11-20T13:27:21;1.20;99.90
6538;DHT22;3302;52.508;13.454;2022-11-20T13:29:58;1.20;99.90
6538;DHT22;3302;52.508;13.454;2022-11-20T13:32:26;1.20;99.90
6538;DHT22;3302;52.508;13.454;2022-11-20T13:34:55;1.30;99.90
6538;DHT22;3302;52.508;13.454;2022-11-20T13:37:31;1.30;99.90
6538;DHT22;3302;52.508;13.454;2022-11-20T13:40:21;1.20;99.90
6538;DHT22;3302;52.508;13.454;2022-11-20T13:48:46;1.20;99.90
6538;DHT22;3302;52.508;13.454;2022-11-20T13:59:56;1.40;99.90
6538;DHT22;3302;52.508;13.454;2022-11-20T14:02:26;1.30;99.90
6538;DHT22;3302;52.508;13.454;2022-11-20T14:04:55;1.20;99.90
6538;DHT22;3302;52.508;13.454;2022-11-20T14:07:25;1.30;99.90
6538;DHT22;3302;52.508;13.454;2022-11-20T14:09:57;1.30;99.90
6538;DHT22;3302;52.508;13.454;2022-11-20T14:12:28;1.20;99.90
6538;DHT22;3302;52.508;13.454;2022-11-20T14:14:55;1.20;99.90
6538;DHT22;3302;52.508;13.454;2022-11-20T14:17:22;1.20;99.90
6538;DHT22;3302;52.508;13.454;2022-11-20T14:19:50;1.20;99.90
6538;DHT22;3302;52.508;13.454;2022-11-20T14:22:26;1.20;99.90
6538;DHT22;3302;52.508;13.454;2022-11-20T14:27:43;1.30;99.90
6538;DHT22;3302;52.508;13.454;2022-11-20T14:30:18;1.30;99.90
6538;DHT22;3302;52.508;13.454;2022-11-20T14:32:45;1.20;99.90
6538;DHT22;3302;52.508;13.454;2022-11-20T14:35:20;1.30;99.90
6538;DHT22;3302;52.508;13.454;2022-11-20T14:37:47;1.30;99.90
6538;DHT22;3302;52.508;13.454;2022-11-20T14:42:52;1.10;99.90
6538;DHT22;3302;52.508;13.454;2022-11-20T14:45:18;1.00;99.90
6538;DHT22;3302;52.508;13.454;2022-11-20T14:47:45;1.00;99.90
6538;DHT22;3302;52.508;13.454;2022-11-20T14:50:27;1.00;99.90
6538;DHT22;3302;52.508;13.454;2022-11-20T14:52:58;1.00;99.90
6538;DHT22;3302;52.508;13.454;2022-11-20T14:58:32;0.90;99.90
6538;DHT22;3302;52.508;13.454;2022-11-20T15:01:06;1.00;99.90
6538;DHT22;3302;52.508;13.454;2022-11-20T15:03:37;0.90;99.90
6538;DHT22;3302;52.508;13.454;2022-11-20T15:06:06;0.90;99.90
6538;DHT22;3302;52.508;13.454;2022-11-20T15:08:33;0.90;99.90
6538;DHT22;3302;52.508;13.454;2022-11-20T15:10:59;0.90;99.90
6538;DHT22;3302;52.508;13.454;2022-11-20T15:13:34;0.90;99.90
6538;DHT22;3302;52.508;13.454;2022-11-20T15:19:15;0.90;99.90
6538;DHT22;3302;52.508;13.454;2022-11-20T15:21:42;0.90;99.90
6538;DHT22;3302;52.508;13.454;2022-11-20T15:24:09;1.00;99.90
6538;DHT22;3302;52.508;13.454;2022-11-20T15:26:35;0.90;99.90
6538;DHT22;3302;52.508;13.454;2022-11-20T15:29:04;1.00;99.90
6538;DHT22;3302;52.508;13.454;2022-11-20T15:31:29;1.00;99.90
6538;DHT22;3302;52.508;13.454;2022-11-20T15:33:55;0.90;99.90
6538;DHT22;3302;52.508;13.454;2022-11-20T15:36:21;0.90;99.90
6538;DHT22;3302;52.508;13.454;2022-11-20T15:38:47;1.00;99.90
6538;DHT22;3302;52.508;13.454;2022-11-20T15:41:12;1.00;99.90
6538;DHT22;3302;52.508;13.454;2022-11-20T15:43:38;1.00;99.90
6538;DHT22;3302;52.508;13.454;2022-11-20T15:46:08;1.10;99.90
6538;DHT22;3302;52.508;13.454;2022-11-20T15:48:38;0.90;99.90
6538;DHT22;3302;52.508;13.454;2022-11-20T15:51:14;1.00;99.90
6538;DHT22;3302;52.508;13.454;2022-11-20T15:53:42;1.00;99.90
6538;DHT22;3302;52.508;13.454;2022-11-20T15:56:11;1.00;99.90
6538;DHT22;3302;52.508;13.454;2022-11-20T15:58:39;1.00;99.90
6538;DHT22;3302;52.508;13.454;2022-11-20T16:01:05;1.00;99.90
6538;DHT22;3302;52.508;13.454;2022-11-20T16:03:31;1.00;99.90
6538;DHT22;3302;52.508;13.454;2022-11-20T16:05:56;1.00;99.90
6538;DHT22;3302;52.508;13.454;2022-11-20T16:08:22;1.00;99.90
6538;DHT22;3302;52.508;13.454;2022-11-20T16:10:48;1.00;99.90
6538;DHT22;3302;52.508;13.454;2022-11-20T16:13:16;0.90;99.90
6538;DHT22;3302;52.508;13.454;2022-11-20T16:16:05;0.80;99.90
6538;DHT22;3302;52.508;13.454;2022-11-20T16:18:31;0.80;99.90
6538;DHT22;3302;52.508;13.454;2022-11-20T16:20:57;0.80;99.90
6538;DHT22;3302;52.508;13.454;2022-11-20T16:23:23;0.80;99.90
6538;DHT22;3302;52.508;13.454;2022-11-20T16:25:50;0.80;99.90
6538;DHT22;3302;52.508;13.454;2022-11-20T16:28:16;0.80;99.90
6538;DHT22;3302;52.508;13.454;2022-11-20T16:30:42;0.70;99.90
6538;DHT22;3302;52.508;13.454;2022-11-20T16:33:12;0.70;99.90
6538;DHT22;3302;52.508;13.454;2022-11-20T16:35:38;0.80;99.90
6538;DHT22;3302;52.508;13.454;2022-11-20T16:38:04;0.80;99.90
6538;DHT22;3302;52.508;13.454;2022-11-20T16:40:30;0.70;99.90
6538;DHT22;3302;52.508;13.454;2022-11-20T16:42:56;0.70;99.90
6538;DHT22;3302;52.508;13.454;2022-11-20T16:45:23;0.70;99.90
6538;DHT22;3302;52.508;13.454;2022-11-20T16:47:48;0.60;99.90
6538;DHT22;3302;52.508;13.454;2022-11-20T16:50:14;0.70;99.90
6538;DHT22;3302;52.508;13.454;2022-11-20T16:52:40;0.60;99.90
6538;DHT22;3302;52.508;13.454;2022-11-20T16:55:06;0.60;99.90
6538;DHT22;3302;52.508;13.454;2022-11-20T16:57:32;0.60;99.90
6538;DHT22;3302;52.508;13.454;2022-11-20T16:59:59;0.60;99.90
6538;DHT22;3302;52.508;13.454;2022-11-20T17:02:26;0.60;99.90
6538;DHT22;3302;52.508;13.454;2022-11-20T17:04:52;0.60;99.90
6538;DHT22;3302;52.508;13.454;2022-11-20T17:07:18;0.60;99.90
6538;DHT22;3302;52.508;13.454;2022-11-20T17:09:44;0.60;99.90
6538;DHT22;3302;52.508;13.454;2022-11-20T17:12:10;0.60;99.90
6538;DHT22;3302;52.508;13.454;2022-11-20T17:14:35;0.50;99.90
6538;DHT22;3302;52.508;13.454;2022-11-20T17:17:01;0.60;99.90
6538;DHT22;3302;52.508;13.454;2022-11-20T17:19:28;0.60;99.90
6538;DHT22;3302;52.508;13.454;2022-11-20T17:21:54;0.60;99.90
6538;DHT22;3302;52.508;13.454;2022-11-20T17:24:19;0.60;99.90
6538;DHT22;3302;52.508;13.454;2022-11-20T17:26:48;0.60;99.90
6538;DHT22;3302;52.508;13.454;2022-11-20T17:29:16;0.60;99.90
6538;DHT22;3302;52.508;13.454;2022-11-20T17:31:42;0.60;99.90
6538;DHT22;3302;52.508;13.454;2022-11-20T17:34:13;0.70;99.90
6538;DHT22;3302;52.508;13.454;2022-11-20T17:36:40;0.70;99.90
6538;DHT22;3302;52.508;13.454;2022-11-20T17:39:10;0.70;99.90
6538;DHT22;3302;52.508;13.454;2022-11-20T17:41:36;0.60;99.90
6538;DHT22;3302;52.508;13.454;2022-11-20T17:44:02;0.60;99.90
6538;DHT22;3302;52.508;13.454;2022-11-20T17:46:30;0.60;99.90
6538;DHT22;3302;52.508;13.454;2022-11-20T17:48:59;0.60;99.90
6538;DHT22;3302;52.508;13.454;2022-11-20T17:51:27;0.70;99.90
6538;DHT22;3302;52.508;13.454;2022-11-20T17:53:56;0.80;99.90
6538;DHT22;3302;52.508;13.454;2022-11-20T17:56:22;0.70;99.90